sensor_id;sensor_type;location;lat;lon;timestamp;temperature;humidity
3086;DHT22;52812;48.960;9.108;2022-08-21T00:00:22;14.60;99.90
3086;DHT22;52812;48.960;9.108;2022-08-21T00:02:58;14.40;99.90
3086;DHT22;52812;48.960;9.108;2022-08-21T00:05:27;14.40;99.90
3086;DHT22;52812;48.960;9.108;2022-08-21T00:07:52;14.40;99.90
3086;DHT22;52812;48.960;9.108;2022-08-21T00:10:18;14.40;99.90
3086;DHT22;52812;48.960;9.108;2022-08-21T00:12:44;14.40;99.90
3086;DHT22;52812;48.960;9.108;2022-08-21T00:15:23;14.30;99.90
3086;DHT22;52812;48.960;9.108;2022-08-21T00:17:49;14.30;99.90
3086;DHT22;52812;48.960;9.108;2022-08-21T00:20:17;14.20;99.90
3086;DHT22;52812;48.960;9.108;2022-08-21T00:22:42;14.30;99.90
3086;DHT22;52812;48.960;9.108;2022-08-21T00:25:09;14.30;99.90
3086;DHT22;52812;48.960;9.108;2022-08-21T00:27:36;14.30;99.90
3086;DHT22;52812;48.960;9.108;2022-08-21T00:30:03;14.20;99.90
3086;DHT22;52812;48.960;9.108;2022-08-21T00:32:29;14.10;99.90
3086;DHT22;52812;48.960;9.108;2022-08-21T00:34:55;14.10;99.90
3086;DHT22;52812;48.960;9.108;2022-08-21T00:37:21;14.00;99.90
3086;DHT22;52812;48.960;9.108;2022-08-21T00:39:47;13.90;99.90
3086;DHT22;52812;48.960;9.108;2022-08-21T00:42:14;13.80;99.90
3086;DHT22;52812;48.960;9.108;2022-08-21T00:44:42;13.80;99.90
3086;DHT22;52812;48.960;9.108;2022-08-21T00:47:09;13.80;99.90
3086;DHT22;52812;48.960;9.108;2022-08-21T00:49:35;13.80;99.90
3086;DHT22;52812;48.960;9.108;2022-08-21T00:52:01;13.70;99.90
3086;DHT22;52812;48.960;9.108;2022-08-21T00:54:28;13.70;99.90
3086;DHT22;52812;48.960;9.108;2022-08-21T00:56:59;13.70;99.90
3086;DHT22;52812;48.960;9.108;2022-08-21T00:59:26;13.70;99.90
3086;DHT22;52812;48.960;9.108;2022-08-21T01:01:53;13.70;99.90
3086;DHT22;52812;48.960;9.108;2022-08-21T01:04:19;13.60;99.90
3086;DHT22;52812;48.960;9.108;2022-08-21T01:06:45;13.60;99.90
3086;DHT22;52812;48.960;9.108;2022-08-21T01:09:11;13.60;99.90
3086;DHT22;52812;48.960;9.108;2022-08-21T01:11:37;13.60;99.90
3086;DHT22;52812;48.960;9.108;2022-08-21T01:14:03;13.60;99.90
3086;DHT22;52812;48.960;9.108;2022-08-21T01:16:28;13.50;99.90
3086;DHT22;52812;48.960;9.108;2022-08-21T01:18:54;13.40;99.90
3086;DHT22;52812;48.960;9.108;2022-08-21T01:21:26;13.30;99.90
3086;DHT22;52812;48.960;9.108;2022-08-21T01:23:54;13.20;99.90
3086;DHT22;52812;48.960;9.108;2022-08-21T01:26:24;13.20;99.90
3086;DHT22;52812;48.960;9.108;2022-08-21T01:29:00;13.20;99.90
3086;DHT22;52812;48.960;9.108;2022-08-21T01:31:27;13.10;99.90
3086;DHT22;52812;48.960;9.108;2022-08-21T01:33:54;13.20;99.90
3086;DHT22;52812;48.960;9.108;2022-08-21T01:36:21;13.20;99.90
3086;DHT22;52812;48.960;9.108;2022-08-21T01:38:47;13.20;99.90
3086;DHT22;52812;48.960;9.108;2022-08-21T01:41:13;13.20;99.90
3086;DHT22;52812;48.960;9.108;2022-08-21T01:43:40;13.10;99.90
3086;DHT22;52812;48.960;9.108;2022-08-21T01:46:06;13.10;99.90
3086;DHT22;52812;48.960;9.108;2022-08-21T01:48:32;13.10;99.90
3086;DHT22;52812;48.960;9.108;2022-08-21T01:50:57;13.10;99.90
3086;DHT22;52812;48.960;9.108;2022-08-21T01:53:23;12.90;99.90
3086;DHT22;52812;48.960;9.108;2022-08-21T01:55:49;12.90;99.90
3086;DHT22;52812;48.960;9.108;2022-08-21T01:58:14;13.00;99.90
3086;DHT22;52812;48.960;9.108;2022-08-21T02:00:40;13.00;99.90
3086;DHT22;52812;48.960;9.108;2022-08-21T02:03:05;13.00;99.90
3086;DHT22;52812;48.960;9.108;2022-08-21T02:05:31;12.90;99.90
3086;DHT22;52812;48.960;9.108;2022-08-21T02:07:57;12.80;99.90
3086;DHT22;52812;48.960;9.108;2022-08-21T02:10:27;12.70;99.90
3086;DHT22;52812;48.960;9.108;2022-08-21T02:12:55;12.70;99.90
3086;DHT22;52812;48.960;9.108;2022-08-21T02:15:20;12.70;99.90
3086;DHT22;52812;48.960;9.108;2022-08-21T02:17:52;12.70;99.90
3086;DHT22;52812;48.960;9.108;2022-08-21T02:20:23;12.70;99.90
3086;DHT22;52812;48.960;9.108;2022-08-21T02:22:49;12.70;99.90
3086;DHT22;52812;48.960;9.108;2022-08-21T02:25:16;12.70;99.90
3086;DHT22;52812;48.960;9.108;2022-08-21T02:27:43;12.60;99.90
3086;DHT22;52812;48.960;9.108;2022-08-21T02:30:13;12.60;99.90
3086;DHT22;52812;48.960;9.108;2022-08-21T02:32:39;12.50;99.90
3086;DHT22;52812;48.960;9.108;2022-08-21T02:35:06;12.50;99.90
3086;DHT22;52812;48.960;9.108;2022-08-21T02:37:32;12.50;99.90
3086;DHT22;52812;48.960;9.108;2022-08-21T02:39:59;12.50;99.90
3086;DHT22;52812;48.960;9.108;2022-08-21T02:42:26;12.50;99.90
3086;DHT22;52812;48.960;9.108;2022-08-21T02:44:51;12.40;99.90
3086;DHT22;52812;48.960;9.108;2022-08-21T02:47:17;12.40;99.90
3086;DHT22;52812;48.960;9.108;2022-08-21T02:49:43;12.40;99.90
3086;DHT22;52812;48.960;9.108;2022-08-21T02:52:08;12.40;99.90
3086;DHT22;52812;48.960;9.108;2022-08-21T02:54:34;12.40;99.90
3086;DHT22;52812;48.960;9.108;2022-08-21T02:57:00;12.30;99.90
3086;DHT22;52812;48.960;9.108;2022-08-21T02:59:25;12.30;99.90
3086;DHT22;52812;48.960;9.108;2022-08-21T03:01:51;12.20;99.90
3086;DHT22;52812;48.960;9.108;2022-08-21T03:04:16;12.20;99.90
3086;DHT22;52812;48.960;9.108;2022-08-21T03:06:42;12.20;99.90
3086;DHT22;52812;48.960;9.108;2022-08-21T03:09:08;12.10;99.90
3086;DHT22;52812;48.960;9.108;2022-08-21T03:11:33;12.10;99.90
3086;DHT22;52812;48.960;9.108;2022-08-21T03:14:00;12.20;99.90
3086;DHT22;52812;48.960;9.108;2022-08-21T03:16:25;12.20;99.90
3086;DHT22;52812;48.960;9.108;2022-08-21T03:18:51;12.10;99.90
3086;DHT22;52812;48.960;9.108;2022-08-21T03:21:17;12.10;99.90
3086;DHT22;52812;48.960;9.108;2022-08-21T03:23:44;12.00;99.90
3086;DHT22;52812;48.960;9.108;2022-08-21T03:26:09;12.00;99.90
3086;DHT22;52812;48.960;9.108;2022-08-21T03:28:36;12.00;99.90
3086;DHT22;52812;48.960;9.108;2022-08-21T03:31:02;12.00;99.90
3086;DHT22;52812;48.960;9.108;2022-08-21T03:33:28;11.90;99.90
3086;DHT22;52812;48.960;9.108;2022-08-21T03:35:59;11.90;99.90
3086;DHT22;52812;48.960;9.108;2022-08-21T03:38:26;11.90;99.90
3086;DHT22;52812;48.960;9.108;2022-08-21T03:40:52;11.80;99.90
3086;DHT22;52812;48.960;9.108;2022-08-21T03:43:18;11.90;99.90
3086;DHT22;52812;48.960;9.108;2022-08-21T03:45:44;11.90;99.90
3086;DHT22;52812;48.960;9.108;2022-08-21T03:48:10;11.80;99.90
3086;DHT22;52812;48.960;9.108;2022-08-21T03:50:39;11.80;99.90
3086;DHT22;52812;48.960;9.108;2022-08-21T03:53:05;11.70;99.90
3086;DHT22;52812;48.960;9.108;2022-08-21T03:55:31;11.80;99.90
3086;DHT22;52812;48.960;9.108;2022-08-21T03:57:57;11.80;99.90
3086;DHT22;52812;48.960;9.108;2022-08-21T04:00:23;11.80;99.90
3086;DHT22;52812;48.960;9.108;2022-08-21T04:02:49;11.90;99.90
3086;DHT22;52812;48.960;9.108;2022-08-21T04:05:16;11.90;99.90
3086;DHT22;52812;48.960;9.108;2022-08-21T04:07:53;11.90;99.90
3086;DHT22;52812;48.960;9.108;2022-08-21T04:10:19;11.90;99.90
3086;DHT22;52812;48.960;9.108;2022-08-21T04:12:45;11.80;99.90
3086;DHT22;52812;48.960;9.108;2022-08-21T04:15:10;11.80;99.90
3086;DHT22;52812;48.960;9.108;2022-08-21T04:17:36;11.80;99.90
3086;DHT22;52812;48.960;9.108;2022-08-21T04:20:01;11.90;99.90
3086;DHT22;52812;48.960;9.108;2022-08-21T04:22:27;11.90;99.90
3086;DHT22;52812;48.960;9.108;2022-08-21T04:24:53;11.90;99.90
3086;DHT22;52812;48.960;9.108;2022-08-21T04:27:18;11.90;99.90
3086;DHT22;52812;48.960;9.108;2022-08-21T04:29:44;11.90;99.90
3086;DHT22;52812;48.960;9.108;2022-08-21T04:32:09;11.80;99.90
3086;DHT22;52812;48.960;9.108;2022-08-21T04:34:35;11.80;99.90
3086;DHT22;52812;48.960;9.108;2022-08-21T04:37:00;11.80;99.90
3086;DHT22;52812;48.960;9.108;2022-08-21T04:39:26;11.80;99.90
3086;DHT22;52812;48.960;9.108;2022-08-21T04:41:51;11.70;99.90
3086;DHT22;52812;48.960;9.108;2022-08-21T04:44:17;11.70;99.90
3086;DHT22;52812;48.960;9.108;2022-08-21T04:46:43;11.70;99.90
3086;DHT22;52812;48.960;9.108;2022-08-21T04:49:09;11.80;99.90
3086;DHT22;52812;48.960;9.108;2022-08-21T04:51:36;11.80;99.90
3086;DHT22;52812;48.960;9.108;2022-08-21T04:54:13;11.80;99.90
3086;DHT22;52812;48.960;9.108;2022-08-21T04:56:42;11.90;99.90
3086;DHT22;52812;48.960;9.108;2022-08-21T04:59:17;11.90;99.90
3086;DHT22;52812;48.960;9.108;2022-08-21T05:01:44;12.00;99.90
3086;DHT22;52812;48.960;9.108;2022-08-21T05:04:14;12.00;99.90
3086;DHT22;52812;48.960;9.108;2022-08-21T05:06:45;12.10;99.90
3086;DHT22;52812;48.960;9.108;2022-08-21T05:09:16;12.20;99.90
3086;DHT22;52812;48.960;9.108;2022-08-21T05:11:43;12.20;99.90
3086;DHT22;52812;48.960;9.108;2022-08-21T05:14:10;12.30;99.90
3086;DHT22;52812;48.960;9.108;2022-08-21T05:16:37;12.50;99.90
3086;DHT22;52812;48.960;9.108;2022-08-21T05:19:04;12.70;99.90
3086;DHT22;52812;48.960;9.108;2022-08-21T05:21:30;12.80;99.90
3086;DHT22;52812;48.960;9.108;2022-08-21T05:23:55;13.10;99.90
3086;DHT22;52812;48.960;9.108;2022-08-21T05:26:21;13.40;99.90
3086;DHT22;52812;48.960;9.108;2022-08-21T05:28:46;13.70;99.90
3086;DHT22;52812;48.960;9.108;2022-08-21T05:31:12;14.20;99.90
3086;DHT22;52812;48.960;9.108;2022-08-21T05:33:37;14.70;99.90
3086;DHT22;52812;48.960;9.108;2022-08-21T05:36:03;15.30;99.90
3086;DHT22;52812;48.960;9.108;2022-08-21T05:38:29;16.00;99.90
3086;DHT22;52812;48.960;9.108;2022-08-21T05:40:54;16.50;99.90
3086;DHT22;52812;48.960;9.108;2022-08-21T05:43:20;16.80;99.90
3086;DHT22;52812;48.960;9.108;2022-08-21T05:45:46;17.30;99.90
3086;DHT22;52812;48.960;9.108;2022-08-21T05:48:16;17.70;99.90
3086;DHT22;52812;48.960;9.108;2022-08-21T05:50:43;18.10;99.90
3086;DHT22;52812;48.960;9.108;2022-08-21T05:53:09;18.50;99.90
3086;DHT22;52812;48.960;9.108;2022-08-21T05:55:36;19.00;99.90
3086;DHT22;52812;48.960;9.108;2022-08-21T05:58:03;19.40;99.90
3086;DHT22;52812;48.960;9.108;2022-08-21T06:00:29;19.50;99.90
3086;DHT22;52812;48.960;9.108;2022-08-21T06:02:54;19.80;99.90
3086;DHT22;52812;48.960;9.108;2022-08-21T06:05:20;19.90;99.90
3086;DHT22;52812;48.960;9.108;2022-08-21T06:07:46;20.20;99.90
3086;DHT22;52812;48.960;9.108;2022-08-21T06:10:11;20.60;99.90
3086;DHT22;52812;48.960;9.108;2022-08-21T06:12:37;20.60;99.90
3086;DHT22;52812;48.960;9.108;2022-08-21T06:15:03;20.60;99.90
3086;DHT22;52812;48.960;9.108;2022-08-21T06:17:28;20.70;99.90
3086;DHT22;52812;48.960;9.108;2022-08-21T06:19:54;20.80;99.90
3086;DHT22;52812;48.960;9.108;2022-08-21T06:22:20;21.00;99.90
3086;DHT22;52812;48.960;9.108;2022-08-21T06:24:46;21.60;99.90
3086;DHT22;52812;48.960;9.108;2022-08-21T06:27:12;22.00;99.90
3086;DHT22;52812;48.960;9.108;2022-08-21T06:29:38;22.10;99.90
3086;DHT22;52812;48.960;9.108;2022-08-21T06:32:04;22.00;99.90
3086;DHT22;52812;48.960;9.108;2022-08-21T06:34:32;22.00;99.90
3086;DHT22;52812;48.960;9.108;2022-08-21T06:36:57;22.40;99.90
3086;DHT22;52812;48.960;9.108;2022-08-21T06:39:23;22.50;99.90
3086;DHT22;52812;48.960;9.108;2022-08-21T06:41:48;22.70;99.90
3086;DHT22;52812;48.960;9.108;2022-08-21T06:44:16;22.80;99.90
3086;DHT22;52812;48.960;9.108;2022-08-21T06:46:42;23.10;99.90
3086;DHT22;52812;48.960;9.108;2022-08-21T06:49:08;23.20;99.90
3086;DHT22;52812;48.960;9.108;2022-08-21T06:51:33;23.20;99.90
3086;DHT22;52812;48.960;9.108;2022-08-21T06:53:59;23.40;99.90
3086;DHT22;52812;48.960;9.108;2022-08-21T06:56:25;23.40;99.90
3086;DHT22;52812;48.960;9.108;2022-08-21T06:58:50;23.70;99.90
3086;DHT22;52812;48.960;9.108;2022-08-21T07:01:18;23.80;99.90
3086;DHT22;52812;48.960;9.108;2022-08-21T07:03:44;24.20;99.90
3086;DHT22;52812;48.960;9.108;2022-08-21T07:06:10;24.30;99.90
3086;DHT22;52812;48.960;9.108;2022-08-21T07:08:39;24.50;99.90
3086;DHT22;52812;48.960;9.108;2022-08-21T07:11:18;24.60;99.90
3086;DHT22;52812;48.960;9.108;2022-08-21T07:13:45;24.50;99.90
3086;DHT22;52812;48.960;9.108;2022-08-21T07:16:10;24.60;99.90
3086;DHT22;52812;48.960;9.108;2022-08-21T07:18:36;24.60;99.90
3086;DHT22;52812;48.960;9.108;2022-08-21T07:21:03;25.00;99.90
3086;DHT22;52812;48.960;9.108;2022-08-21T07:23:32;24.90;99.90
3086;DHT22;52812;48.960;9.108;2022-08-21T07:25:59;25.20;99.90
3086;DHT22;52812;48.960;9.108;2022-08-21T07:28:26;25.20;99.90
3086;DHT22;52812;48.960;9.108;2022-08-21T07:30:54;25.30;99.90
3086;DHT22;52812;48.960;9.108;2022-08-21T07:33:20;25.30;99.90
3086;DHT22;52812;48.960;9.108;2022-08-21T07:35:46;25.20;99.90
3086;DHT22;52812;48.960;9.108;2022-08-21T07:38:12;25.30;99.90
3086;DHT22;52812;48.960;9.108;2022-08-21T07:40:37;25.20;99.90
3086;DHT22;52812;48.960;9.108;2022-08-21T07:43:04;25.30;99.90
3086;DHT22;52812;48.960;9.108;2022-08-21T07:45:29;25.30;99.90
3086;DHT22;52812;48.960;9.108;2022-08-21T07:47:55;25.00;99.90
3086;DHT22;52812;48.960;9.108;2022-08-21T07:50:21;25.00;99.90
3086;DHT22;52812;48.960;9.108;2022-08-21T07:52:47;25.20;99.90
3086;DHT22;52812;48.960;9.108;2022-08-21T07:55:16;25.70;99.90
3086;DHT22;52812;48.960;9.108;2022-08-21T07:57:42;26.00;99.90
3086;DHT22;52812;48.960;9.108;2022-08-21T08:00:12;26.10;99.90
3086;DHT22;52812;48.960;9.108;2022-08-21T08:02:38;26.40;99.90
3086;DHT22;52812;48.960;9.108;2022-08-21T08:05:06;26.50;99.90
3086;DHT22;52812;48.960;9.108;2022-08-21T08:07:32;26.40;99.90
3086;DHT22;52812;48.960;9.108;2022-08-21T08:09:57;26.50;99.90
3086;DHT22;52812;48.960;9.108;2022-08-21T08:12:23;26.50;99.90
3086;DHT22;52812;48.960;9.108;2022-08-21T08:14:57;26.20;99.90
3086;DHT22;52812;48.960;9.108;2022-08-21T08:17:23;26.40;99.90
3086;DHT22;52812;48.960;9.108;2022-08-21T08:19:49;26.50;99.90
3086;DHT22;52812;48.960;9.108;2022-08-21T08:22:20;26.50;99.90
3086;DHT22;52812;48.960;9.108;2022-08-21T08:24:51;26.50;99.90
3086;DHT22;52812;48.960;9.108;2022-08-21T08:27:17;26.40;99.90
3086;DHT22;52812;48.960;9.108;2022-08-21T08:29:43;26.20;99.90
3086;DHT22;52812;48.960;9.108;2022-08-21T08:32:09;26.40;99.90
3086;DHT22;52812;48.960;9.108;2022-08-21T08:34:36;26.50;99.90
3086;DHT22;52812;48.960;9.108;2022-08-21T08:37:03;26.50;99.90
3086;DHT22;52812;48.960;9.108;2022-08-21T08:39:29;26.30;99.90
3086;DHT22;52812;48.960;9.108;2022-08-21T08:42:06;26.30;99.90
3086;DHT22;52812;48.960;9.108;2022-08-21T08:44:32;25.80;99.90
3086;DHT22;52812;48.960;9.108;2022-08-21T08:46:59;25.50;99.90
3086;DHT22;52812;48.960;9.108;2022-08-21T08:49:34;24.90;99.90
3086;DHT22;52812;48.960;9.108;2022-08-21T08:52:22;24.50;99.90
3086;DHT22;52812;48.960;9.108;2022-08-21T08:57:27;24.70;99.90
3086;DHT22;52812;48.960;9.108;2022-08-21T08:59:56;24.90;99.90
3086;DHT22;52812;48.960;9.108;2022-08-21T09:02:24;25.00;99.90
3086;DHT22;52812;48.960;9.108;2022-08-21T09:04:50;24.80;99.90
3086;DHT22;52812;48.960;9.108;2022-08-21T09:12:48;24.90;99.90
3086;DHT22;52812;48.960;9.108;2022-08-21T09:26:15;25.60;99.90
3086;DHT22;52812;48.960;9.108;2022-08-21T09:28:42;25.80;98.90
3086;DHT22;52812;48.960;9.108;2022-08-21T09:31:35;25.90;98.90
3086;DHT22;52812;48.960;9.108;2022-08-21T09:34:08;25.80;99.40
3086;DHT22;52812;48.960;9.108;2022-08-21T09:36:43;26.00;99.30
3086;DHT22;52812;48.960;9.108;2022-08-21T09:39:11;26.10;99.90
3086;DHT22;52812;48.960;9.108;2022-08-21T09:41:41;25.80;98.10
3086;DHT22;52812;48.960;9.108;2022-08-21T09:44:08;25.40;98.60
3086;DHT22;52812;48.960;9.108;2022-08-21T09:46:37;25.50;99.60
3086;DHT22;52812;48.960;9.108;2022-08-21T09:49:03;25.70;98.80
3086;DHT22;52812;48.960;9.108;2022-08-21T09:51:32;25.70;97.10
3086;DHT22;52812;48.960;9.108;2022-08-21T09:56:59;26.20;97.60
3086;DHT22;52812;48.960;9.108;2022-08-21T09:59:45;26.30;97.30
3086;DHT22;52812;48.960;9.108;2022-08-21T10:02:34;26.10;96.80
3086;DHT22;52812;48.960;9.108;2022-08-21T10:07:29;25.70;96.80
3086;DHT22;52812;48.960;9.108;2022-08-21T10:10:08;26.00;97.10
3086;DHT22;52812;48.960;9.108;2022-08-21T10:15:18;25.20;96.20
3086;DHT22;52812;48.960;9.108;2022-08-21T10:18:33;25.30;96.90
3086;DHT22;52812;48.960;9.108;2022-08-21T10:21:20;25.50;96.10
3086;DHT22;52812;48.960;9.108;2022-08-21T10:24:24;25.80;95.30
3086;DHT22;52812;48.960;9.108;2022-08-21T10:32:21;25.80;96.00
3086;DHT22;52812;48.960;9.108;2022-08-21T10:37:45;25.40;95.30
3086;DHT22;52812;48.960;9.108;2022-08-21T10:48:20;26.30;96.20
3086;DHT22;52812;48.960;9.108;2022-08-21T10:50:55;26.40;95.30
3086;DHT22;52812;48.960;9.108;2022-08-21T10:56:04;26.60;94.50
3086;DHT22;52812;48.960;9.108;2022-08-21T11:01:46;26.60;94.30
3086;DHT22;52812;48.960;9.108;2022-08-21T11:04:25;26.50;94.70
3086;DHT22;52812;48.960;9.108;2022-08-21T11:07:16;26.40;95.50
3086;DHT22;52812;48.960;9.108;2022-08-21T11:09:46;26.60;95.40
3086;DHT22;52812;48.960;9.108;2022-08-21T11:12:24;26.70;95.20
3086;DHT22;52812;48.960;9.108;2022-08-21T11:17:49;26.60;94.10
3086;DHT22;52812;48.960;9.108;2022-08-21T11:20:34;26.70;92.80
3086;DHT22;52812;48.960;9.108;2022-08-21T11:23:07;26.60;93.80
3086;DHT22;52812;48.960;9.108;2022-08-21T11:25:41;26.80;93.10
3086;DHT22;52812;48.960;9.108;2022-08-21T11:28:13;26.80;93.60
3086;DHT22;52812;48.960;9.108;2022-08-21T11:30:52;26.90;93.20
3086;DHT22;52812;48.960;9.108;2022-08-21T11:33:32;26.70;92.40
3086;DHT22;52812;48.960;9.108;2022-08-21T11:36:22;26.70;92.80
3086;DHT22;52812;48.960;9.108;2022-08-21T11:39:00;26.70;92.80
3086;DHT22;52812;48.960;9.108;2022-08-21T11:44:31;26.60;92.50
3086;DHT22;52812;48.960;9.108;2022-08-21T11:52:29;27.00;91.20
3086;DHT22;52812;48.960;9.108;2022-08-21T11:57:44;27.10;92.70
3086;DHT22;52812;48.960;9.108;2022-08-21T12:00:25;27.00;91.10
3086;DHT22;52812;48.960;9.108;2022-08-21T12:02:58;27.10;91.20
3086;DHT22;52812;48.960;9.108;2022-08-21T12:08:06;27.30;90.60
3086;DHT22;52812;48.960;9.108;2022-08-21T12:10:37;27.40;91.60
3086;DHT22;52812;48.960;9.108;2022-08-21T12:13:32;27.40;90.80
3086;DHT22;52812;48.960;9.108;2022-08-21T12:21:29;27.50;91.10
3086;DHT22;52812;48.960;9.108;2022-08-21T12:29:32;28.10;90.60
3086;DHT22;52812;48.960;9.108;2022-08-21T12:34:50;27.30;90.50
3086;DHT22;52812;48.960;9.108;2022-08-21T12:39:57;27.10;90.10
3086;DHT22;52812;48.960;9.108;2022-08-21T12:42:38;27.10;90.40
3086;DHT22;52812;48.960;9.108;2022-08-21T12:48:08;27.00;90.80
3086;DHT22;52812;48.960;9.108;2022-08-21T12:53:31;26.90;90.80
3086;DHT22;52812;48.960;9.108;2022-08-21T12:56:02;26.80;91.00
3086;DHT22;52812;48.960;9.108;2022-08-21T12:58:30;26.50;90.80
3086;DHT22;52812;48.960;9.108;2022-08-21T13:01:05;26.50;90.90
3086;DHT22;52812;48.960;9.108;2022-08-21T13:03:36;26.30;90.10
3086;DHT22;52812;48.960;9.108;2022-08-21T13:06:04;26.20;90.40
3086;DHT22;52812;48.960;9.108;2022-08-21T13:08:30;26.20;90.70
3086;DHT22;52812;48.960;9.108;2022-08-21T13:11:04;26.20;89.60
3086;DHT22;52812;48.960;9.108;2022-08-21T13:13:31;26.30;89.30
3086;DHT22;52812;48.960;9.108;2022-08-21T13:16:06;26.40;88.70
3086;DHT22;52812;48.960;9.108;2022-08-21T13:18:35;26.50;90.10
3086;DHT22;52812;48.960;9.108;2022-08-21T13:21:13;26.70;90.50
3086;DHT22;52812;48.960;9.108;2022-08-21T13:23:39;26.90;88.80
3086;DHT22;52812;48.960;9.108;2022-08-21T13:26:16;26.80;86.80
3086;DHT22;52812;48.960;9.108;2022-08-21T13:28:42;27.10;88.30
3086;DHT22;52812;48.960;9.108;2022-08-21T13:31:09;27.00;87.50
3086;DHT22;52812;48.960;9.108;2022-08-21T13:33:37;26.60;86.40
3086;DHT22;52812;48.960;9.108;2022-08-21T13:36:16;26.50;86.30
3086;DHT22;52812;48.960;9.108;2022-08-21T13:38:44;26.50;86.90
3086;DHT22;52812;48.960;9.108;2022-08-21T13:41:24;26.50;83.90
3086;DHT22;52812;48.960;9.108;2022-08-21T13:44:02;26.50;85.30
3086;DHT22;52812;48.960;9.108;2022-08-21T13:46:31;26.60;86.30
3086;DHT22;52812;48.960;9.108;2022-08-21T13:48:59;26.90;88.30
3086;DHT22;52812;48.960;9.108;2022-08-21T13:51:25;26.70;87.10
3086;DHT22;52812;48.960;9.108;2022-08-21T13:53:52;26.90;88.20
3086;DHT22;52812;48.960;9.108;2022-08-21T13:56:29;27.00;86.90
3086;DHT22;52812;48.960;9.108;2022-08-21T13:58:57;27.20;87.20
3086;DHT22;52812;48.960;9.108;2022-08-21T14:01:24;27.30;88.00
3086;DHT22;52812;48.960;9.108;2022-08-21T14:03:53;27.60;87.50
3086;DHT22;52812;48.960;9.108;2022-08-21T14:06:26;27.80;85.90
3086;DHT22;52812;48.960;9.108;2022-08-21T14:08:59;27.70;85.00
3086;DHT22;52812;48.960;9.108;2022-08-21T14:11:26;27.50;85.80
3086;DHT22;52812;48.960;9.108;2022-08-21T14:14:05;27.30;86.80
3086;DHT22;52812;48.960;9.108;2022-08-21T14:16:44;27.10;86.10
3086;DHT22;52812;48.960;9.108;2022-08-21T14:19:24;26.80;86.60
3086;DHT22;52812;48.960;9.108;2022-08-21T14:21:50;26.70;86.00
3086;DHT22;52812;48.960;9.108;2022-08-21T14:27:00;26.70;87.90
3086;DHT22;52812;48.960;9.108;2022-08-21T14:29:27;26.70;87.80
3086;DHT22;52812;48.960;9.108;2022-08-21T14:31:59;26.80;86.60
3086;DHT22;52812;48.960;9.108;2022-08-21T14:34:26;26.80;87.90
3086;DHT22;52812;48.960;9.108;2022-08-21T14:36:54;26.70;88.60
3086;DHT22;52812;48.960;9.108;2022-08-21T14:39:20;26.70;85.70
3086;DHT22;52812;48.960;9.108;2022-08-21T14:41:46;26.70;86.10
3086;DHT22;52812;48.960;9.108;2022-08-21T14:44:14;26.80;87.10
3086;DHT22;52812;48.960;9.108;2022-08-21T14:46:40;26.90;87.20
3086;DHT22;52812;48.960;9.108;2022-08-21T14:49:06;26.90;86.70
3086;DHT22;52812;48.960;9.108;2022-08-21T14:51:32;26.90;86.90
3086;DHT22;52812;48.960;9.108;2022-08-21T14:53:58;26.80;86.90
3086;DHT22;52812;48.960;9.108;2022-08-21T14:56:24;26.80;87.10
3086;DHT22;52812;48.960;9.108;2022-08-21T14:58:51;26.80;87.20
3086;DHT22;52812;48.960;9.108;2022-08-21T15:01:19;26.80;87.50
3086;DHT22;52812;48.960;9.108;2022-08-21T15:03:46;26.70;86.10
3086;DHT22;52812;48.960;9.108;2022-08-21T15:06:13;26.70;87.00
3086;DHT22;52812;48.960;9.108;2022-08-21T15:08:40;26.60;88.70
3086;DHT22;52812;48.960;9.108;2022-08-21T15:11:06;26.50;87.50
3086;DHT22;52812;48.960;9.108;2022-08-21T15:13:32;26.40;87.20
3086;DHT22;52812;48.960;9.108;2022-08-21T15:15:58;26.50;87.50
3086;DHT22;52812;48.960;9.108;2022-08-21T15:18:26;26.40;87.70
3086;DHT22;52812;48.960;9.108;2022-08-21T15:20:51;26.40;86.90
3086;DHT22;52812;48.960;9.108;2022-08-21T15:23:17;26.40;87.50
3086;DHT22;52812;48.960;9.108;2022-08-21T15:25:45;26.40;86.70
3086;DHT22;52812;48.960;9.108;2022-08-21T15:28:13;26.30;87.50
3086;DHT22;52812;48.960;9.108;2022-08-21T15:30:43;26.20;87.00
3086;DHT22;52812;48.960;9.108;2022-08-21T15:33:09;26.20;87.10
3086;DHT22;52812;48.960;9.108;2022-08-21T15:35:35;26.20;87.10
3086;DHT22;52812;48.960;9.108;2022-08-21T15:38:01;26.10;88.30
3086;DHT22;52812;48.960;9.108;2022-08-21T15:40:27;26.20;86.40
3086;DHT22;52812;48.960;9.108;2022-08-21T15:42:57;26.20;85.40
3086;DHT22;52812;48.960;9.108;2022-08-21T15:45:23;26.10;84.90
3086;DHT22;52812;48.960;9.108;2022-08-21T15:47:50;26.10;85.80
3086;DHT22;52812;48.960;9.108;2022-08-21T15:50:16;26.10;84.60
3086;DHT22;52812;48.960;9.108;2022-08-21T15:52:41;26.20;84.90
3086;DHT22;52812;48.960;9.108;2022-08-21T15:55:08;26.20;85.90
3086;DHT22;52812;48.960;9.108;2022-08-21T15:57:35;26.20;84.70
3086;DHT22;52812;48.960;9.108;2022-08-21T16:00:11;26.10;84.90
3086;DHT22;52812;48.960;9.108;2022-08-21T16:02:40;26.10;84.80
3086;DHT22;52812;48.960;9.108;2022-08-21T16:05:08;26.10;85.30
3086;DHT22;52812;48.960;9.108;2022-08-21T16:07:36;26.10;84.30
3086;DHT22;52812;48.960;9.108;2022-08-21T16:10:03;26.00;83.70
3086;DHT22;52812;48.960;9.108;2022-08-21T16:12:31;26.00;83.30
3086;DHT22;52812;48.960;9.108;2022-08-21T16:14:58;26.00;84.40
3086;DHT22;52812;48.960;9.108;2022-08-21T16:17:28;26.00;83.30
3086;DHT22;52812;48.960;9.108;2022-08-21T16:19:55;26.00;84.20
3086;DHT22;52812;48.960;9.108;2022-08-21T16:22:20;26.00;82.50
3086;DHT22;52812;48.960;9.108;2022-08-21T16:24:46;25.90;82.50
3086;DHT22;52812;48.960;9.108;2022-08-21T16:27:12;25.90;82.40
3086;DHT22;52812;48.960;9.108;2022-08-21T16:29:39;25.90;81.80
3086;DHT22;52812;48.960;9.108;2022-08-21T16:32:05;25.90;82.30
3086;DHT22;52812;48.960;9.108;2022-08-21T16:34:31;25.80;83.60
3086;DHT22;52812;48.960;9.108;2022-08-21T16:36:56;25.80;84.50
3086;DHT22;52812;48.960;9.108;2022-08-21T16:39:22;25.80;84.10
3086;DHT22;52812;48.960;9.108;2022-08-21T16:41:48;25.80;82.00
3086;DHT22;52812;48.960;9.108;2022-08-21T16:44:15;25.80;81.50
3086;DHT22;52812;48.960;9.108;2022-08-21T16:46:41;25.90;81.60
3086;DHT22;52812;48.960;9.108;2022-08-21T16:49:08;25.90;82.10
3086;DHT22;52812;48.960;9.108;2022-08-21T16:51:35;25.80;81.40
3086;DHT22;52812;48.960;9.108;2022-08-21T16:54:01;25.70;82.10
3086;DHT22;52812;48.960;9.108;2022-08-21T16:56:27;25.70;81.90
3086;DHT22;52812;48.960;9.108;2022-08-21T16:58:54;25.70;81.90
3086;DHT22;52812;48.960;9.108;2022-08-21T17:01:23;25.60;81.70
3086;DHT22;52812;48.960;9.108;2022-08-21T17:03:50;25.50;82.20
3086;DHT22;52812;48.960;9.108;2022-08-21T17:06:16;25.50;82.20
3086;DHT22;52812;48.960;9.108;2022-08-21T17:08:42;25.50;81.20
3086;DHT22;52812;48.960;9.108;2022-08-21T17:11:21;25.40;81.30
3086;DHT22;52812;48.960;9.108;2022-08-21T17:13:47;25.40;81.50
3086;DHT22;52812;48.960;9.108;2022-08-21T17:16:13;25.40;81.10
3086;DHT22;52812;48.960;9.108;2022-08-21T17:18:39;25.30;80.70
3086;DHT22;52812;48.960;9.108;2022-08-21T17:21:05;25.30;80.70
3086;DHT22;52812;48.960;9.108;2022-08-21T17:23:31;25.20;80.40